sensor_id;sensor_type;location;lat;lon;timestamp;P1;durP1;ratioP1;P2;durP2;ratioP2
2720;SDS011;1368;49.484;11.112;2024-02-26T00:02:16;9.77;;;5.90;;
2720;SDS011;1368;49.484;11.112;2024-02-26T00:04:42;8.80;;;5.50;;
2720;SDS011;1368;49.484;11.112;2024-02-26T00:07:07;10.87;;;6.43;;
2720;SDS011;1368;49.484;11.112;2024-02-26T00:09:33;10.60;;;6.57;;
2720;SDS011;1368;49.484;11.112;2024-02-26T00:12:04;9.90;;;6.37;;
2720;SDS011;1368;49.484;11.112;2024-02-26T00:14:30;15.40;;;7.57;;
2720;SDS011;1368;49.484;11.112;2024-02-26T00:16:56;12.60;;;7.77;;
2720;SDS011;1368;49.484;11.112;2024-02-26T00:19:21;14.50;;;7.13;;
2720;SDS011;1368;49.484;11.112;2024-02-26T00:21:47;10.03;;;7.57;;
2720;SDS011;1368;49.484;11.112;2024-02-26T00:24:13;11.43;;;6.50;;
2720;SDS011;1368;49.484;11.112;2024-02-26T00:26:38;15.07;;;8.50;;
2720;SDS011;1368;49.484;11.112;2024-02-26T00:29:04;14.13;;;9.40;;
2720;SDS011;1368;49.484;11.112;2024-02-26T00:31:30;14.07;;;9.20;;
2720;SDS011;1368;49.484;11.112;2024-02-26T00:33:56;14.23;;;8.47;;
2720;SDS011;1368;49.484;11.112;2024-02-26T00:36:21;16.73;;;10.67;;
2720;SDS011;1368;49.484;11.112;2024-02-26T00:38:47;13.20;;;8.70;;
2720;SDS011;1368;49.484;11.112;2024-02-26T00:41:16;16.50;;;8.77;;
2720;SDS011;1368;49.484;11.112;2024-02-26T00:43:42;16.50;;;10.00;;
2720;SDS011;1368;49.484;11.112;2024-02-26T00:46:07;16.53;;;9.13;;
2720;SDS011;1368;49.484;11.112;2024-02-26T00:48:33;16.33;;;9.00;;
2720;SDS011;1368;49.484;11.112;2024-02-26T00:50:59;14.20;;;8.80;;
2720;SDS011;1368;49.484;11.112;2024-02-26T00:53:24;16.43;;;9.57;;
2720;SDS011;1368;49.484;11.112;2024-02-26T00:55:50;16.43;;;10.30;;
2720;SDS011;1368;49.484;11.112;2024-02-26T00:58:16;21.37;;;9.87;;
2720;SDS011;1368;49.484;11.112;2024-02-26T01:00:41;18.70;;;10.27;;
2720;SDS011;1368;49.484;11.112;2024-02-26T01:03:07;16.70;;;10.00;;
2720;SDS011;1368;49.484;11.112;2024-02-26T01:05:32;17.60;;;10.80;;
2720;SDS011;1368;49.484;11.112;2024-02-26T01:07:58;18.10;;;10.93;;
2720;SDS011;1368;49.484;11.112;2024-02-26T01:10:24;19.37;;;11.20;;
2720;SDS011;1368;49.484;11.112;2024-02-26T01:12:49;16.50;;;10.60;;
2720;SDS011;1368;49.484;11.112;2024-02-26T01:15:15;20.63;;;11.07;;
2720;SDS011;1368;49.484;11.112;2024-02-26T01:17:41;19.90;;;11.80;;
2720;SDS011;1368;49.484;11.112;2024-02-26T01:20:06;18.67;;;11.97;;
2720;SDS011;1368;49.484;11.112;2024-02-26T01:22:33;20.10;;;10.77;;
2720;SDS011;1368;49.484;11.112;2024-02-26T01:24:59;19.37;;;11.87;;
2720;SDS011;1368;49.484;11.112;2024-02-26T01:27:25;20.50;;;11.23;;
2720;SDS011;1368;49.484;11.112;2024-02-26T01:29:52;15.80;;;10.10;;
2720;SDS011;1368;49.484;11.112;2024-02-26T01:32:17;21.93;;;13.33;;
2720;SDS011;1368;49.484;11.112;2024-02-26T01:34:44;18.63;;;11.17;;
2720;SDS011;1368;49.484;11.112;2024-02-26T01:37:10;17.40;;;12.53;;
2720;SDS011;1368;49.484;11.112;2024-02-26T01:39:36;21.43;;;12.27;;
2720;SDS011;1368;49.484;11.112;2024-02-26T01:42:01;22.83;;;10.97;;
2720;SDS011;1368;49.484;11.112;2024-02-26T01:44:27;19.73;;;9.70;;
2720;SDS011;1368;49.484;11.112;2024-02-26T01:46:53;18.50;;;11.33;;
2720;SDS011;1368;49.484;11.112;2024-02-26T01:49:19;16.73;;;11.00;;
2720;SDS011;1368;49.484;11.112;2024-02-26T01:51:45;17.10;;;11.20;;
2720;SDS011;1368;49.484;11.112;2024-02-26T01:54:11;17.33;;;10.37;;
2720;SDS011;1368;49.484;11.112;2024-02-26T01:56:37;19.93;;;10.17;;
2720;SDS011;1368;49.484;11.112;2024-02-26T01:59:04;14.20;;;10.07;;
2720;SDS011;1368;49.484;11.112;2024-02-26T02:01:31;18.53;;;9.83;;
2720;SDS011;1368;49.484;11.112;2024-02-26T02:03:58;19.93;;;9.87;;
2720;SDS011;1368;49.484;11.112;2024-02-26T02:06:25;16.03;;;9.40;;
2720;SDS011;1368;49.484;11.112;2024-02-26T02:08:52;17.23;;;8.40;;
2720;SDS011;1368;49.484;11.112;2024-02-26T02:11:18;16.03;;;8.97;;
2720;SDS011;1368;49.484;11.112;2024-02-26T02:13:44;14.23;;;8.43;;
2720;SDS011;1368;49.484;11.112;2024-02-26T02:16:10;18.97;;;10.43;;
2720;SDS011;1368;49.484;11.112;2024-02-26T02:18:35;13.83;;;8.67;;
2720;SDS011;1368;49.484;11.112;2024-02-26T02:21:01;13.10;;;8.97;;
2720;SDS011;1368;49.484;11.112;2024-02-26T02:23:27;14.50;;;8.13;;
2720;SDS011;1368;49.484;11.112;2024-02-26T02:25:52;18.97;;;9.77;;
2720;SDS011;1368;49.484;11.112;2024-02-26T02:28:20;12.67;;;7.93;;
2720;SDS011;1368;49.484;11.112;2024-02-26T02:30:46;17.83;;;9.30;;
2720;SDS011;1368;49.484;11.112;2024-02-26T02:33:12;15.20;;;9.13;;
2720;SDS011;1368;49.484;11.112;2024-02-26T02:35:39;12.37;;;8.80;;
2720;SDS011;1368;49.484;11.112;2024-02-26T02:38:05;14.60;;;10.10;;
2720;SDS011;1368;49.484;11.112;2024-02-26T02:40:30;20.17;;;10.33;;
2720;SDS011;1368;49.484;11.112;2024-02-26T02:42:56;15.67;;;9.80;;
2720;SDS011;1368;49.484;11.112;2024-02-26T02:45:21;15.87;;;8.83;;
2720;SDS011;1368;49.484;11.112;2024-02-26T02:47:47;16.57;;;10.20;;
2720;SDS011;1368;49.484;11.112;2024-02-26T02:50:12;17.30;;;9.40;;
2720;SDS011;1368;49.484;11.112;2024-02-26T02:52:38;15.80;;;9.40;;
2720;SDS011;1368;49.484;11.112;2024-02-26T02:55:03;16.73;;;10.13;;
2720;SDS011;1368;49.484;11.112;2024-02-26T02:57:29;17.67;;;9.70;;
2720;SDS011;1368;49.484;11.112;2024-02-26T02:59:56;12.97;;;8.60;;
2720;SDS011;1368;49.484;11.112;2024-02-26T03:02:21;18.30;;;10.30;;
2720;SDS011;1368;49.484;11.112;2024-02-26T03:04:49;16.20;;;10.47;;
2720;SDS011;1368;49.484;11.112;2024-02-26T03:07:15;22.90;;;10.97;;
2720;SDS011;1368;49.484;11.112;2024-02-26T03:09:41;15.27;;;9.97;;
2720;SDS011;1368;49.484;11.112;2024-02-26T03:12:06;16.40;;;10.23;;
2720;SDS011;1368;49.484;11.112;2024-02-26T03:14:32;20.13;;;11.83;;
2720;SDS011;1368;49.484;11.112;2024-02-26T03:16:57;15.80;;;9.47;;
2720;SDS011;1368;49.484;11.112;2024-02-26T03:19:23;16.57;;;10.10;;
2720;SDS011;1368;49.484;11.112;2024-02-26T03:21:49;15.77;;;9.63;;
2720;SDS011;1368;49.484;11.112;2024-02-26T03:24:14;13.63;;;8.27;;
2720;SDS011;1368;49.484;11.112;2024-02-26T03:26:40;19.20;;;10.10;;
2720;SDS011;1368;49.484;11.112;2024-02-26T03:29:05;13.00;;;7.83;;
2720;SDS011;1368;49.484;11.112;2024-02-26T03:31:31;16.50;;;8.67;;
2720;SDS011;1368;49.484;11.112;2024-02-26T03:33:56;18.50;;;9.47;;
2720;SDS011;1368;49.484;11.112;2024-02-26T03:36:22;13.37;;;9.50;;
2720;SDS011;1368;49.484;11.112;2024-02-26T03:38:48;14.37;;;9.40;;
2720;SDS011;1368;49.484;11.112;2024-02-26T03:41:13;14.77;;;9.20;;
2720;SDS011;1368;49.484;11.112;2024-02-26T03:43:39;17.87;;;10.10;;
2720;SDS011;1368;49.484;11.112;2024-02-26T03:46:08;14.87;;;8.67;;
2720;SDS011;1368;49.484;11.112;2024-02-26T03:48:36;13.50;;;8.53;;
2720;SDS011;1368;49.484;11.112;2024-02-26T03:51:01;13.50;;;7.17;;
2720;SDS011;1368;49.484;11.112;2024-02-26T03:53:27;24.10;;;8.27;;
2720;SDS011;1368;49.484;11.112;2024-02-26T03:55:53;12.57;;;8.83;;
2720;SDS011;1368;49.484;11.112;2024-02-26T03:58:20;12.47;;;8.43;;
2720;SDS011;1368;49.484;11.112;2024-02-26T04:00:46;10.43;;;7.93;;
2720;SDS011;1368;49.484;11.112;2024-02-26T04:03:12;15.37;;;9.07;;
2720;SDS011;1368;49.484;11.112;2024-02-26T04:05:38;12.67;;;9.17;;
2720;SDS011;1368;49.484;11.112;2024-02-26T04:08:04;11.20;;;7.53;;
2720;SDS011;1368;49.484;11.112;2024-02-26T04:10:32;14.63;;;7.60;;
2720;SDS011;1368;49.484;11.112;2024-02-26T04:12:59;12.80;;;8.63;;
2720;SDS011;1368;49.484;11.112;2024-02-26T04:15:25;14.63;;;8.37;;
2720;SDS011;1368;49.484;11.112;2024-02-26T04:17:51;13.70;;;7.80;;
2720;SDS011;1368;49.484;11.112;2024-02-26T04:20:16;15.80;;;9.37;;
2720;SDS011;1368;49.484;11.112;2024-02-26T04:22:42;11.40;;;7.70;;
2720;SDS011;1368;49.484;11.112;2024-02-26T04:25:08;12.70;;;7.60;;
2720;SDS011;1368;49.484;11.112;2024-02-26T04:27:33;13.33;;;8.00;;
2720;SDS011;1368;49.484;11.112;2024-02-26T04:29:59;11.87;;;8.67;;
2720;SDS011;1368;49.484;11.112;2024-02-26T04:32:25;12.70;;;7.73;;
2720;SDS011;1368;49.484;11.112;2024-02-26T04:34:50;15.50;;;8.00;;
2720;SDS011;1368;49.484;11.112;2024-02-26T04:37:16;10.67;;;7.27;;
2720;SDS011;1368;49.484;11.112;2024-02-26T04:39:41;11.90;;;9.00;;
2720;SDS011;1368;49.484;11.112;2024-02-26T04:42:07;13.03;;;6.13;;
2720;SDS011;1368;49.484;11.112;2024-02-26T04:44:32;12.60;;;6.60;;
2720;SDS011;1368;49.484;11.112;2024-02-26T04:46:58;12.10;;;6.90;;
2720;SDS011;1368;49.484;11.112;2024-02-26T04:49:23;9.20;;;6.80;;
2720;SDS011;1368;49.484;11.112;2024-02-26T04:51:49;15.23;;;6.60;;
2720;SDS011;1368;49.484;11.112;2024-02-26T04:54:14;9.17;;;6.60;;
2720;SDS011;1368;49.484;11.112;2024-02-26T04:56:40;8.60;;;6.30;;
2720;SDS011;1368;49.484;11.112;2024-02-26T04:59:06;14.77;;;7.10;;
2720;SDS011;1368;49.484;11.112;2024-02-26T05:01:31;11.40;;;6.73;;
2720;SDS011;1368;49.484;11.112;2024-02-26T05:03:57;9.33;;;6.03;;
2720;SDS011;1368;49.484;11.112;2024-02-26T05:06:22;28.93;;;6.77;;
2720;SDS011;1368;49.484;11.112;2024-02-26T05:08:48;10.87;;;7.17;;
2720;SDS011;1368;49.484;11.112;2024-02-26T05:11:13;10.53;;;6.50;;
2720;SDS011;1368;49.484;11.112;2024-02-26T05:13:39;10.33;;;6.10;;
2720;SDS011;1368;49.484;11.112;2024-02-26T05:16:05;8.47;;;6.20;;
2720;SDS011;1368;49.484;11.112;2024-02-26T05:18:30;10.77;;;5.50;;
2720;SDS011;1368;49.484;11.112;2024-02-26T05:20:56;9.30;;;6.00;;
2720;SDS011;1368;49.484;11.112;2024-02-26T05:23:21;10.10;;;5.67;;
2720;SDS011;1368;49.484;11.112;2024-02-26T05:25:48;9.20;;;5.67;;
2720;SDS011;1368;49.484;11.112;2024-02-26T05:28:14;8.40;;;5.27;;
2720;SDS011;1368;49.484;11.112;2024-02-26T05:30:40;8.73;;;5.73;;
2720;SDS011;1368;49.484;11.112;2024-02-26T05:33:07;7.73;;;5.43;;
2720;SDS011;1368;49.484;11.112;2024-02-26T05:35:33;11.03;;;6.03;;
2720;SDS011;1368;49.484;11.112;2024-02-26T05:37:58;10.73;;;5.37;;
2720;SDS011;1368;49.484;11.112;2024-02-26T05:40:24;11.07;;;6.20;;
2720;SDS011;1368;49.484;11.112;2024-02-26T05:42:49;9.23;;;5.93;;
2720;SDS011;1368;49.484;11.112;2024-02-26T05:45:15;10.47;;;5.70;;
2720;SDS011;1368;49.484;11.112;2024-02-26T05:47:40;9.03;;;5.80;;
2720;SDS011;1368;49.484;11.112;2024-02-26T05:50:10;8.90;;;5.13;;
2720;SDS011;1368;49.484;11.112;2024-02-26T05:52:36;11.73;;;6.03;;
2720;SDS011;1368;49.484;11.112;2024-02-26T05:55:03;8.33;;;6.10;;
2720;SDS011;1368;49.484;11.112;2024-02-26T05:57:29;10.33;;;6.30;;
2720;SDS011;1368;49.484;11.112;2024-02-26T05:59:55;11.27;;;6.20;;
2720;SDS011;1368;49.484;11.112;2024-02-26T06:02:21;11.77;;;6.50;;
2720;SDS011;1368;49.484;11.112;2024-02-26T06:04:47;9.50;;;5.40;;
2720;SDS011;1368;49.484;11.112;2024-02-26T06:07:12;9.13;;;6.00;;
2720;SDS011;1368;49.484;11.112;2024-02-26T06:09:38;9.23;;;6.17;;
2720;SDS011;1368;49.484;11.112;2024-02-26T06:12:04;9.57;;;6.80;;
2720;SDS011;1368;49.484;11.112;2024-02-26T06:14:30;9.80;;;5.93;;
2720;SDS011;1368;49.484;11.112;2024-02-26T06:16:55;11.93;;;6.33;;
2720;SDS011;1368;49.484;11.112;2024-02-26T06:19:21;10.70;;;6.10;;
2720;SDS011;1368;49.484;11.112;2024-02-26T06:21:47;10.30;;;6.30;;
2720;SDS011;1368;49.484;11.112;2024-02-26T06:24:12;8.30;;;6.07;;
2720;SDS011;1368;49.484;11.112;2024-02-26T06:26:38;8.47;;;6.00;;
2720;SDS011;1368;49.484;11.112;2024-02-26T06:29:03;8.30;;;5.77;;
2720;SDS011;1368;49.484;11.112;2024-02-26T06:31:29;9.93;;;7.03;;
2720;SDS011;1368;49.484;11.112;2024-02-26T06:33:54;10.63;;;6.80;;
2720;SDS011;1368;49.484;11.112;2024-02-26T06:36:21;16.30;;;8.00;;
2720;SDS011;1368;49.484;11.112;2024-02-26T06:38:47;11.27;;;6.80;;
2720;SDS011;1368;49.484;11.112;2024-02-26T06:41:14;12.77;;;7.00;;
2720;SDS011;1368;49.484;11.112;2024-02-26T06:43:39;9.70;;;6.63;;
2720;SDS011;1368;49.484;11.112;2024-02-26T06:46:05;9.80;;;6.93;;
2720;SDS011;1368;49.484;11.112;2024-02-26T06:48:31;10.97;;;8.03;;
2720;SDS011;1368;49.484;11.112;2024-02-26T06:50:57;13.50;;;6.73;;
2720;SDS011;1368;49.484;11.112;2024-02-26T06:53:22;9.70;;;6.37;;
2720;SDS011;1368;49.484;11.112;2024-02-26T06:55:48;8.50;;;6.07;;
2720;SDS011;1368;49.484;11.112;2024-02-26T06:58:15;8.60;;;6.07;;
2720;SDS011;1368;49.484;11.112;2024-02-26T07:00:40;10.37;;;6.53;;
2720;SDS011;1368;49.484;11.112;2024-02-26T07:03:06;10.20;;;6.40;;
2720;SDS011;1368;49.484;11.112;2024-02-26T07:05:32;11.90;;;6.90;;
2720;SDS011;1368;49.484;11.112;2024-02-26T07:07:57;8.60;;;6.03;;
2720;SDS011;1368;49.484;11.112;2024-02-26T07:10:23;11.10;;;7.60;;
2720;SDS011;1368;49.484;11.112;2024-02-26T07:12:48;11.37;;;6.43;;
2720;SDS011;1368;49.484;11.112;2024-02-26T07:15:14;9.10;;;5.87;;
2720;SDS011;1368;49.484;11.112;2024-02-26T07:17:39;9.90;;;6.00;;
2720;SDS011;1368;49.484;11.112;2024-02-26T07:20:07;8.83;;;5.90;;
2720;SDS011;1368;49.484;11.112;2024-02-26T07:22:33;10.90;;;6.50;;
2720;SDS011;1368;49.484;11.112;2024-02-26T07:24:59;9.00;;;5.73;;
2720;SDS011;1368;49.484;11.112;2024-02-26T07:27:25;13.40;;;7.43;;
2720;SDS011;1368;49.484;11.112;2024-02-26T07:29:50;10.50;;;6.53;;
2720;SDS011;1368;49.484;11.112;2024-02-26T07:32:16;16.27;;;8.07;;
2720;SDS011;1368;49.484;11.112;2024-02-26T07:34:41;9.60;;;6.03;;
2720;SDS011;1368;49.484;11.112;2024-02-26T07:37:09;9.93;;;6.60;;
2720;SDS011;1368;49.484;11.112;2024-02-26T07:39:35;8.40;;;7.10;;
2720;SDS011;1368;49.484;11.112;2024-02-26T07:42:01;10.63;;;7.53;;
2720;SDS011;1368;49.484;11.112;2024-02-26T07:44:27;15.03;;;7.50;;
2720;SDS011;1368;49.484;11.112;2024-02-26T07:46:53;9.13;;;7.10;;
2720;SDS011;1368;49.484;11.112;2024-02-26T07:49:18;13.40;;;7.50;;
2720;SDS011;1368;49.484;11.112;2024-02-26T07:51:44;12.03;;;7.53;;
2720;SDS011;1368;49.484;11.112;2024-02-26T07:54:09;13.97;;;8.00;;
2720;SDS011;1368;49.484;11.112;2024-02-26T07:56:35;12.40;;;6.90;;
2720;SDS011;1368;49.484;11.112;2024-02-26T07:59:00;11.47;;;7.57;;
2720;SDS011;1368;49.484;11.112;2024-02-26T08:01:26;12.50;;;7.13;;
2720;SDS011;1368;49.484;11.112;2024-02-26T08:03:55;8.87;;;6.53;;
2720;SDS011;1368;49.484;11.112;2024-02-26T08:06:20;12.40;;;7.83;;
2720;SDS011;1368;49.484;11.112;2024-02-26T08:08:46;14.40;;;8.13;;
2720;SDS011;1368;49.484;11.112;2024-02-26T08:11:14;14.40;;;8.40;;
2720;SDS011;1368;49.484;11.112;2024-02-26T08:13:40;11.27;;;7.50;;
2720;SDS011;1368;49.484;11.112;2024-02-26T08:16:06;13.20;;;7.83;;
2720;SDS011;1368;49.484;11.112;2024-02-26T08:18:31;12.70;;;7.57;;
2720;SDS011;1368;49.484;11.112;2024-02-26T08:20:57;13.90;;;6.17;;
2720;SDS011;1368;49.484;11.112;2024-02-26T08:23:23;10.00;;;6.47;;
2720;SDS011;1368;49.484;11.112;2024-02-26T08:25:48;10.27;;;7.23;;
2720;SDS011;1368;49.484;11.112;2024-02-26T08:28:14;10.50;;;6.67;;
2720;SDS011;1368;49.484;11.112;2024-02-26T08:30:42;10.77;;;6.43;;
2720;SDS011;1368;49.484;11.112;2024-02-26T08:33:08;11.60;;;7.23;;
2720;SDS011;1368;49.484;11.112;2024-02-26T08:35:35;12.37;;;7.20;;
2720;SDS011;1368;49.484;11.112;2024-02-26T08:38:00;10.30;;;7.03;;
2720;SDS011;1368;49.484;11.112;2024-02-26T08:40:26;11.93;;;7.10;;
2720;SDS011;1368;49.484;11.112;2024-02-26T08:42:51;9.50;;;7.10;;
2720;SDS011;1368;49.484;11.112;2024-02-26T08:45:17;11.20;;;7.17;;
2720;SDS011;1368;49.484;11.112;2024-02-26T08:47:44;12.87;;;6.67;;
2720;SDS011;1368;49.484;11.112;2024-02-26T08:50:10;10.63;;;6.77;;
2720;SDS011;1368;49.484;11.112;2024-02-26T08:52:37;9.07;;;5.63;;
2720;SDS011;1368;49.484;11.112;2024-02-26T08:55:03;10.03;;;6.13;;
2720;SDS011;1368;49.484;11.112;2024-02-26T08:57:29;10.93;;;6.60;;
2720;SDS011;1368;49.484;11.112;2024-02-26T08:59:58;13.90;;;7.73;;
2720;SDS011;1368;49.484;11.112;2024-02-26T09:02:23;10.30;;;7.03;;
2720;SDS011;1368;49.484;11.112;2024-02-26T09:04:49;10.30;;;6.83;;
2720;SDS011;1368;49.484;11.112;2024-02-26T09:07:16;8.27;;;5.93;;
2720;SDS011;1368;49.484;11.112;2024-02-26T09:09:42;12.60;;;6.70;;
2720;SDS011;1368;49.484;11.112;2024-02-26T09:12:07;10.70;;;7.20;;
2720;SDS011;1368;49.484;11.112;2024-02-26T09:14:33;9.40;;;7.00;;
2720;SDS011;1368;49.484;11.112;2024-02-26T09:16:58;9.37;;;7.20;;
2720;SDS011;1368;49.484;11.112;2024-02-26T09:19:25;9.73;;;6.47;;
2720;SDS011;1368;49.484;11.112;2024-02-26T09:21:52;10.83;;;6.67;;
2720;SDS011;1368;49.484;11.112;2024-02-26T09:24:22;9.93;;;7.47;;
2720;SDS011;1368;49.484;11.112;2024-02-26T09:26:48;9.43;;;7.00;;
2720;SDS011;1368;49.484;11.112;2024-02-26T09:29:14;11.37;;;7.57;;
2720;SDS011;1368;49.484;11.112;2024-02-26T09:31:39;10.43;;;7.20;;
2720;SDS011;1368;49.484;11.112;2024-02-26T09:34:06;9.40;;;6.60;;
2720;SDS011;1368;49.484;11.112;2024-02-26T09:36:32;8.67;;;6.80;;
2720;SDS011;1368;49.484;11.112;2024-02-26T09:39:01;9.10;;;6.57;;
2720;SDS011;1368;49.484;11.112;2024-02-26T09:41:28;9.40;;;6.30;;
2720;SDS011;1368;49.484;11.112;2024-02-26T09:43:57;7.37;;;5.90;;
2720;SDS011;1368;49.484;11.112;2024-02-26T09:46:25;8.57;;;5.53;;
2720;SDS011;1368;49.484;11.112;2024-02-26T09:48:50;11.07;;;6.23;;
2720;SDS011;1368;49.484;11.112;2024-02-26T09:54:24;8.83;;;5.53;;
2720;SDS011;1368;49.484;11.112;2024-02-26T09:56:53;9.37;;;6.87;;
2720;SDS011;1368;49.484;11.112;2024-02-26T09:59:22;8.87;;;6.07;;
2720;SDS011;1368;49.484;11.112;2024-02-26T10:01:48;8.90;;;5.60;;
2720;SDS011;1368;49.484;11.112;2024-02-26T10:04:14;9.17;;;7.03;;
2720;SDS011;1368;49.484;11.112;2024-02-26T10:06:40;11.40;;;6.67;;
2720;SDS011;1368;49.484;11.112;2024-02-26T10:09:09;10.37;;;6.20;;
2720;SDS011;1368;49.484;11.112;2024-02-26T10:11:35;8.67;;;5.80;;
2720;SDS011;1368;49.484;11.112;2024-02-26T10:14:02;7.77;;;6.50;;
2720;SDS011;1368;49.484;11.112;2024-02-26T10:16:27;7.87;;;5.70;;
2720;SDS011;1368;49.484;11.112;2024-02-26T10:18:53;9.23;;;5.67;;
2720;SDS011;1368;49.484;11.112;2024-02-26T10:21:19;7.83;;;5.13;;
2720;SDS011;1368;49.484;11.112;2024-02-26T10:23:46;7.80;;;5.10;;
2720;SDS011;1368;49.484;11.112;2024-02-26T10:26:13;9.00;;;6.47;;
2720;SDS011;1368;49.484;11.112;2024-02-26T10:28:42;7.50;;;5.87;;
2720;SDS011;1368;49.484;11.112;2024-02-26T10:31:08;7.97;;;5.40;;
2720;SDS011;1368;49.484;11.112;2024-02-26T10:33:35;11.30;;;6.40;;
2720;SDS011;1368;49.484;11.112;2024-02-26T10:36:05;9.37;;;6.57;;
2720;SDS011;1368;49.484;11.112;2024-02-26T10:38:34;10.97;;;5.83;;
2720;SDS011;1368;49.484;11.112;2024-02-26T10:41:03;8.80;;;6.10;;
2720;SDS011;1368;49.484;11.112;2024-02-26T10:43:30;8.83;;;5.10;;
2720;SDS011;1368;49.484;11.112;2024-02-26T10:45:56;10.47;;;6.53;;
2720;SDS011;1368;49.484;11.112;2024-02-26T10:48:22;10.00;;;6.00;;
2720;SDS011;1368;49.484;11.112;2024-02-26T10:50:49;7.40;;;5.53;;
2720;SDS011;1368;49.484;11.112;2024-02-26T10:53:16;8.10;;;5.70;;
2720;SDS011;1368;49.484;11.112;2024-02-26T10:55:47;10.43;;;6.00;;
2720;SDS011;1368;49.484;11.112;2024-02-26T10:58:19;10.40;;;5.90;;
2720;SDS011;1368;49.484;11.112;2024-02-26T11:00:46;8.90;;;5.90;;
2720;SDS011;1368;49.484;11.112;2024-02-26T11:03:14;8.37;;;5.90;;
2720;SDS011;1368;49.484;11.112;2024-02-26T11:05:46;8.93;;;5.87;;
2720;SDS011;1368;49.484;11.112;2024-02-26T11:08:13;9.17;;;5.70;;
2720;SDS011;1368;49.484;11.112;2024-02-26T11:10:39;7.60;;;5.47;;
2720;SDS011;1368;49.484;11.112;2024-02-26T11:13:06;8.53;;;5.80;;
2720;SDS011;1368;49.484;11.112;2024-02-26T11:15:34;7.27;;;5.53;;
2720;SDS011;1368;49.484;11.112;2024-02-26T11:18:00;7.03;;;5.70;;
2720;SDS011;1368;49.484;11.112;2024-02-26T11:20:29;6.60;;;4.43;;
2720;SDS011;1368;49.484;11.112;2024-02-26T11:22:57;8.33;;;5.43;;
2720;SDS011;1368;49.484;11.112;2024-02-26T11:25:22;8.77;;;6.20;;
2720;SDS011;1368;49.484;11.112;2024-02-26T11:27:58;7.80;;;5.57;;
2720;SDS011;1368;49.484;11.112;2024-02-26T11:30:29;6.40;;;4.70;;
2720;SDS011;1368;49.484;11.112;2024-02-26T11:32:57;9.53;;;5.37;;
2720;SDS011;1368;49.484;11.112;2024-02-26T11:35:23;6.50;;;5.10;;
2720;SDS011;1368;49.484;11.112;2024-02-26T11:37:55;9.10;;;5.17;;
2720;SDS011;1368;49.484;11.112;2024-02-26T11:40:22;10.77;;;5.33;;
2720;SDS011;1368;49.484;11.112;2024-02-26T11:42:50;6.50;;;4.93;;
2720;SDS011;1368;49.484;11.112;2024-02-26T11:48:16;7.47;;;5.10;;
2720;SDS011;1368;49.484;11.112;2024-02-26T11:50:46;6.60;;;4.60;;
2720;SDS011;1368;49.484;11.112;2024-02-26T11:53:19;7.97;;;5.50;;
2720;SDS011;1368;49.484;11.112;2024-02-26T11:55:45;8.77;;;5.77;;
2720;SDS011;1368;49.484;11.112;2024-02-26T11:58:10;6.90;;;4.57;;
2720;SDS011;1368;49.484;11.112;2024-02-26T12:00:36;5.90;;;4.27;;
2720;SDS011;1368;49.484;11.112;2024-02-26T12:03:01;6.60;;;4.63;;
2720;SDS011;1368;49.484;11.112;2024-02-26T12:05:31;7.07;;;4.50;;
2720;SDS011;1368;49.484;11.112;2024-02-26T12:08:02;6.90;;;4.60;;
2720;SDS011;1368;49.484;11.112;2024-02-26T12:10:31;8.50;;;4.23;;
2720;SDS011;1368;49.484;11.112;2024-02-26T12:13:09;6.50;;;4.13;;
2720;SDS011;1368;49.484;11.112;2024-02-26T12:15:42;4.53;;;3.80;;
2720;SDS011;1368;49.484;11.112;2024-02-26T12:18:10;6.33;;;4.17;;
2720;SDS011;1368;49.484;11.112;2024-02-26T12:20:40;5.20;;;3.90;;
2720;SDS011;1368;49.484;11.112;2024-02-26T12:23:06;5.97;;;3.80;;
2720;SDS011;1368;49.484;11.112;2024-02-26T12:25:32;6.03;;;4.10;;
2720;SDS011;1368;49.484;11.112;2024-02-26T12:27:58;6.10;;;4.10;;
2720;SDS011;1368;49.484;11.112;2024-02-26T12:30:24;7.60;;;3.80;;
2720;SDS011;1368;49.484;11.112;2024-02-26T12:32:51;5.70;;;3.93;;
2720;SDS011;1368;49.484;11.112;2024-02-26T12:35:22;6.60;;;3.43;;
2720;SDS011;1368;49.484;11.112;2024-02-26T12:40:39;5.70;;;3.93;;
2720;SDS011;1368;49.484;11.112;2024-02-26T12:43:05;5.80;;;3.83;;
2720;SDS011;1368;49.484;11.112;2024-02-26T12:45:31;4.20;;;3.30;;
2720;SDS011;1368;49.484;11.112;2024-02-26T12:47:58;6.47;;;4.30;;
2720;SDS011;1368;49.484;11.112;2024-02-26T12:50:24;4.77;;;3.40;;
2720;SDS011;1368;49.484;11.112;2024-02-26T12:52:50;7.83;;;4.20;;
2720;SDS011;1368;49.484;11.112;2024-02-26T12:55:18;8.27;;;4.40;;
2720;SDS011;1368;49.484;11.112;2024-02-26T12:57:45;8.27;;;4.70;;
2720;SDS011;1368;49.484;11.112;2024-02-26T13:00:16;9.10;;;4.20;;
2720;SDS011;1368;49.484;11.112;2024-02-26T13:02:43;6.07;;;3.83;;
2720;SDS011;1368;49.484;11.112;2024-02-26T13:05:10;6.97;;;3.17;;
2720;SDS011;1368;49.484;11.112;2024-02-26T13:07:44;7.80;;;3.77;;
2720;SDS011;1368;49.484;11.112;2024-02-26T13:10:12;9.00;;;4.60;;
2720;SDS011;1368;49.484;11.112;2024-02-26T13:12:42;7.40;;;4.47;;
2720;SDS011;1368;49.484;11.112;2024-02-26T13:15:19;3.97;;;2.60;;
2720;SDS011;1368;49.484;11.112;2024-02-26T13:17:45;6.23;;;2.60;;
2720;SDS011;1368;49.484;11.112;2024-02-26T13:20:11;3.77;;;2.83;;
2720;SDS011;1368;49.484;11.112;2024-02-26T13:22:38;4.47;;;2.80;;
2720;SDS011;1368;49.484;11.112;2024-02-26T13:25:04;4.77;;;3.43;;
2720;SDS011;1368;49.484;11.112;2024-02-26T13:27:32;7.37;;;3.50;;
2720;SDS011;1368;49.484;11.112;2024-02-26T13:32:37;4.20;;;2.80;;
2720;SDS011;1368;49.484;11.112;2024-02-26T13:35:12;4.80;;;3.00;;
2720;SDS011;1368;49.484;11.112;2024-02-26T13:37:38;4.87;;;3.17;;
2720;SDS011;1368;49.484;11.112;2024-02-26T13:40:08;4.27;;;2.37;;
2720;SDS011;1368;49.484;11.112;2024-02-26T13:42:36;5.40;;;3.03;;
2720;SDS011;1368;49.484;11.112;2024-02-26T13:45:02;4.07;;;2.40;;
2720;SDS011;1368;49.484;11.112;2024-02-26T13:47:31;4.70;;;2.50;;
2720;SDS011;1368;49.484;11.112;2024-02-26T13:50:00;3.60;;;2.00;;
2720;SDS011;1368;49.484;11.112;2024-02-26T13:52:26;3.33;;;2.20;;
2720;SDS011;1368;49.484;11.112;2024-02-26T13:54:52;2.80;;;1.30;;
2720;SDS011;1368;49.484;11.112;2024-02-26T13:57:19;2.53;;;1.47;;
2720;SDS011;1368;49.484;11.112;2024-02-26T13:59:44;4.30;;;1.87;;
2720;SDS011;1368;49.484;11.112;2024-02-26T14:02:10;2.70;;;1.70;;
2720;SDS011;1368;49.484;11.112;2024-02-26T14:04:37;2.97;;;1.83;;
2720;SDS011;1368;49.484;11.112;2024-02-26T14:07:02;4.73;;;2.30;;
2720;SDS011;1368;49.484;11.112;2024-02-26T14:09:29;3.10;;;1.70;;
2720;SDS011;1368;49.484;11.112;2024-02-26T14:11:54;3.20;;;1.87;;
2720;SDS011;1368;49.484;11.112;2024-02-26T14:14:20;4.03;;;2.43;;
2720;SDS011;1368;49.484;11.112;2024-02-26T14:16:46;4.27;;;2.87;;
2720;SDS011;1368;49.484;11.112;2024-02-26T14:19:11;5.00;;;2.67;;
2720;SDS011;1368;49.484;11.112;2024-02-26T14:21:37;3.00;;;1.90;;
2720;SDS011;1368;49.484;11.112;2024-02-26T14:24:02;3.37;;;2.40;;
2720;SDS011;1368;49.484;11.112;2024-02-26T14:26:29;4.30;;;2.67;;
2720;SDS011;1368;49.484;11.112;2024-02-26T14:28:54;4.40;;;2.50;;
2720;SDS011;1368;49.484;11.112;2024-02-26T14:31:20;5.63;;;3.37;;
2720;SDS011;1368;49.484;11.112;2024-02-26T14:33:46;3.60;;;2.67;;
2720;SDS011;1368;49.484;11.112;2024-02-26T14:36:13;5.30;;;3.47;;
2720;SDS011;1368;49.484;11.112;2024-02-26T14:38:39;3.87;;;2.90;;
2720;SDS011;1368;49.484;11.112;2024-02-26T14:41:04;5.87;;;3.70;;
2720;SDS011;1368;49.484;11.112;2024-02-26T14:43:30;3.77;;;2.80;;
2720;SDS011;1368;49.484;11.112;2024-02-26T14:45:57;6.40;;;3.43;;
2720;SDS011;1368;49.484;11.112;2024-02-26T14:48:23;4.83;;;3.53;;
2720;SDS011;1368;49.484;11.112;2024-02-26T14:50:49;4.20;;;3.00;;
2720;SDS011;1368;49.484;11.112;2024-02-26T14:53:15;6.37;;;3.87;;
2720;SDS011;1368;49.484;11.112;2024-02-26T14:55:41;4.93;;;2.83;;
2720;SDS011;1368;49.484;11.112;2024-02-26T14:58:07;5.10;;;3.60;;
2720;SDS011;1368;49.484;11.112;2024-02-26T15:00:35;5.30;;;3.57;;